createdAt,value
2019-01-31T00:00:20.453Z,987.41
2019-01-31T00:01:20.429Z,987.45
2019-01-31T00:02:20.433Z,987.47
2019-01-31T00:03:20.430Z,987.45
2019-01-31T00:04:20.400Z,987.47
2019-01-31T00:05:20.410Z,987.46
2019-01-31T00:06:20.381Z,987.47
2019-01-31T00:07:20.370Z,987.50
2019-01-31T00:08:20.374Z,987.46
2019-01-31T00:09:20.346Z,987.46
2019-01-31T00:10:20.343Z,987.48
2019-01-31T00:11:20.319Z,987.47
2019-01-31T00:12:20.321Z,987.44
2019-01-31T00:13:20.298Z,987.44
2019-01-31T00:14:20.287Z,987.41
2019-01-31T00:15:20.285Z,987.42
2019-01-31T00:16:20.266Z,987.46
2019-01-31T00:17:20.254Z,987.42
2019-01-31T00:18:20.245Z,987.45
2019-01-31T00:19:20.256Z,987.42
2019-01-31T00:20:20.231Z,987.44
2019-01-31T00:21:20.218Z,987.43
2019-01-31T00:22:20.214Z,987.44
2019-01-31T00:23:20.192Z,987.43
2019-01-31T00:24:20.178Z,987.40
2019-01-31T00:25:20.180Z,987.47
2019-01-31T00:26:20.161Z,987.45
2019-01-31T00:27:20.145Z,987.51
2019-01-31T00:28:20.145Z,987.47
2019-01-31T00:29:20.124Z,987.44
2019-01-31T00:30:20.125Z,987.49
2019-01-31T00:31:20.120Z,987.47
2019-01-31T00:32:20.095Z,987.49
2019-01-31T00:33:20.078Z,987.51
2019-01-31T00:34:20.072Z,987.48
2019-01-31T00:35:20.070Z,987.52
2019-01-31T00:36:20.107Z,987.48
2019-01-31T00:37:20.034Z,987.49
2019-01-31T00:38:20.023Z,987.48
2019-01-31T00:39:20.014Z,987.48
2019-01-31T00:40:20.029Z,987.46
2019-01-31T00:41:20.040Z,987.52
2019-01-31T00:42:20.008Z,987.49
2019-01-31T00:43:19.969Z,987.51
2019-01-31T00:44:19.968Z,987.50
2019-01-31T00:45:19.945Z,987.51
2019-01-31T00:46:19.946Z,987.51
2019-01-31T00:47:19.934Z,987.54
2019-01-31T00:48:19.916Z,987.56
2019-01-31T00:49:19.910Z,987.55
2019-01-31T00:50:19.900Z,987.51
2019-01-31T00:51:19.895Z,987.57
2019-01-31T00:52:19.870Z,987.56
2019-01-31T00:53:19.858Z,987.54
2019-01-31T00:54:19.849Z,987.55
2019-01-31T00:55:19.852Z,987.51
2019-01-31T00:56:19.841Z,987.54
2019-01-31T00:57:19.872Z,987.62
2019-01-31T00:58:19.805Z,987.62
2019-01-31T00:59:19.795Z,987.61
2019-01-31T01:00:19.791Z,987.65
2019-01-31T01:01:19.787Z,987.61
2019-01-31T01:02:19.758Z,987.62
2019-01-31T01:03:19.755Z,987.60
2019-01-31T01:04:19.738Z,987.60
2019-01-31T01:05:19.757Z,987.62
2019-01-31T01:06:19.729Z,987.61
2019-01-31T01:07:19.729Z,987.62
2019-01-31T01:08:19.693Z,987.61
2019-01-31T01:09:19.691Z,987.65
2019-01-31T01:10:19.671Z,987.64
2019-01-31T01:11:19.698Z,987.63
2019-01-31T01:12:19.648Z,987.66
2019-01-31T01:13:19.641Z,987.70
2019-01-31T01:14:19.690Z,987.67
2019-01-31T01:15:19.618Z,987.70
2019-01-31T01:16:19.634Z,987.69
2019-01-31T01:17:19.608Z,987.69
2019-01-31T01:18:19.583Z,987.64
2019-01-31T01:19:27.097Z,987.64
2019-01-31T01:20:26.571Z,987.67
2019-01-31T01:21:19.550Z,987.67
2019-01-31T01:22:28.529Z,987.71
2019-01-31T01:23:19.529Z,987.70
2019-01-31T01:24:19.517Z,987.74
2019-01-31T01:25:19.505Z,987.74
2019-01-31T01:26:19.497Z,987.71
2019-01-31T01:27:19.512Z,987.69
2019-01-31T01:28:19.473Z,987.67
2019-01-31T01:29:19.467Z,987.71
2019-01-31T01:30:19.451Z,987.65
2019-01-31T01:31:19.439Z,987.69
2019-01-31T01:32:19.446Z,987.71
2019-01-31T01:33:19.449Z,987.71
2019-01-31T01:34:19.411Z,987.72
2019-01-31T01:35:19.396Z,987.83
2019-01-31T01:36:19.386Z,987.79
2019-01-31T01:37:19.407Z,987.80
2019-01-31T01:38:19.366Z,987.81
2019-01-31T01:39:19.621Z,987.84
2019-01-31T01:40:19.367Z,987.84
2019-01-31T01:41:19.330Z,987.84
2019-01-31T01:42:19.344Z,987.83
2019-01-31T01:43:19.307Z,987.86
2019-01-31T01:44:19.296Z,987.87
2019-01-31T01:45:19.292Z,987.89
2019-01-31T01:46:19.293Z,987.84
2019-01-31T01:47:19.285Z,987.87
2019-01-31T01:48:19.252Z,987.86
2019-01-31T01:49:19.241Z,987.87
2019-01-31T01:50:19.249Z,987.86
2019-01-31T01:51:19.229Z,987.88
2019-01-31T01:52:19.224Z,987.85
2019-01-31T01:53:19.258Z,987.86
2019-01-31T01:54:19.205Z,987.91
2019-01-31T01:55:19.175Z,987.93
2019-01-31T01:56:19.167Z,987.94
2019-01-31T01:57:19.181Z,987.93
2019-01-31T01:58:19.144Z,987.92
2019-01-31T01:59:19.132Z,987.91
2019-01-31T02:00:19.124Z,987.96
2019-01-31T02:01:19.390Z,987.94
2019-01-31T02:02:19.114Z,987.91
2019-01-31T02:03:19.102Z,987.88
2019-01-31T02:04:19.091Z,987.90
2019-01-31T02:05:19.066Z,987.86
2019-01-31T02:06:19.054Z,987.89
2019-01-31T02:07:19.063Z,987.88
2019-01-31T02:08:19.042Z,987.91
2019-01-31T02:09:29.725Z,987.95
2019-01-31T02:10:20.033Z,987.90
2019-01-31T02:11:19.006Z,987.97
2019-01-31T02:12:19.028Z,987.96
2019-01-31T02:13:19.007Z,987.96
2019-01-31T02:14:18.966Z,987.94
2019-01-31T02:15:18.960Z,987.96
2019-01-31T02:16:18.971Z,987.96
2019-01-31T02:17:18.972Z,987.95
2019-01-31T02:18:18.936Z,987.98
2019-01-31T02:19:18.928Z,988.00
2019-01-31T02:20:18.911Z,987.98
2019-01-31T02:21:18.892Z,987.96
2019-01-31T02:22:18.914Z,988.03
2019-01-31T02:23:18.890Z,987.96
2019-01-31T02:24:18.856Z,988.01
2019-01-31T02:25:18.850Z,988.00
2019-01-31T02:26:18.882Z,987.97
2019-01-31T02:27:18.827Z,987.98
2019-01-31T02:28:18.827Z,988.00
2019-01-31T02:29:18.812Z,988.02
2019-01-31T02:30:18.793Z,987.98
2019-01-31T02:31:18.779Z,988.00
2019-01-31T02:32:18.771Z,988.00
2019-01-31T02:33:18.877Z,988.02
2019-01-31T02:34:18.766Z,988.00
2019-01-31T02:35:18.742Z,988.01
2019-01-31T02:36:18.743Z,988.02
2019-01-31T02:37:18.717Z,988.03
2019-01-31T02:38:18.721Z,988.06
2019-01-31T02:39:18.694Z,988.05
2019-01-31T02:40:18.681Z,988.05
2019-01-31T02:41:18.670Z,988.06
2019-01-31T02:42:18.670Z,988.09
2019-01-31T02:43:18.695Z,988.08
2019-01-31T02:44:18.640Z,988.06
2019-01-31T02:45:18.641Z,988.08
2019-01-31T02:46:18.615Z,988.08
2019-01-31T02:47:18.611Z,988.08
2019-01-31T02:48:18.645Z,988.03
2019-01-31T02:49:18.584Z,988.11
2019-01-31T02:50:18.580Z,988.05
2019-01-31T02:51:18.569Z,988.08
2019-01-31T02:52:18.573Z,988.06
2019-01-31T02:53:18.568Z,988.08
2019-01-31T02:54:18.530Z,988.06
2019-01-31T02:55:18.521Z,988.05
2019-01-31T02:56:18.542Z,988.11
2019-01-31T02:57:18.499Z,988.04
2019-01-31T02:58:18.484Z,988.09
2019-01-31T02:59:18.517Z,988.06
2019-01-31T03:00:18.461Z,988.08
2019-01-31T03:01:18.460Z,988.07
2019-01-31T03:02:18.441Z,988.08
2019-01-31T03:03:18.427Z,988.07
2019-01-31T03:04:18.436Z,988.05
2019-01-31T03:05:18.430Z,988.04
2019-01-31T03:06:18.395Z,988.06
2019-01-31T03:07:18.383Z,988.08
2019-01-31T03:08:18.377Z,988.04
2019-01-31T03:09:18.393Z,988.11
2019-01-31T03:10:18.363Z,988.09
2019-01-31T03:11:18.340Z,988.14
2019-01-31T03:12:18.333Z,988.07
2019-01-31T03:13:18.320Z,988.06
2019-01-31T03:14:18.321Z,988.01
2019-01-31T03:15:18.298Z,988.04
2019-01-31T03:16:18.291Z,988.04
2019-01-31T03:17:18.304Z,988.03
2019-01-31T03:18:18.262Z,988.02
2019-01-31T03:19:18.269Z,988.01
2019-01-31T03:20:18.254Z,988.03
2019-01-31T03:21:18.235Z,987.96
2019-01-31T03:22:18.237Z,987.99
2019-01-31T03:23:18.209Z,987.97
2019-01-31T03:24:18.247Z,988.00
2019-01-31T03:25:18.200Z,987.98
2019-01-31T03:26:18.178Z,987.97
2019-01-31T03:27:18.167Z,987.97
2019-01-31T03:28:18.152Z,987.99
2019-01-31T03:29:18.154Z,988.01
2019-01-31T03:30:18.164Z,987.97
2019-01-31T03:31:18.130Z,988.06
2019-01-31T03:32:18.116Z,988.00
2019-01-31T03:33:18.108Z,988.01
2019-01-31T03:34:18.131Z,987.98
2019-01-31T03:35:18.076Z,987.98
2019-01-31T03:36:18.070Z,988.01
2019-01-31T03:37:18.054Z,988.09
2019-01-31T03:38:18.158Z,988.07
2019-01-31T03:39:18.063Z,988.06
2019-01-31T03:40:18.028Z,988.05
2019-01-31T03:41:18.011Z,988.03
2019-01-31T03:42:18.009Z,988.05
2019-01-31T03:43:18.001Z,988.06
2019-01-31T03:44:17.987Z,988.06
2019-01-31T03:45:17.977Z,988.10
2019-01-31T03:46:17.960Z,988.09
2019-01-31T03:47:17.943Z,988.13
2019-01-31T03:48:17.942Z,988.10
2019-01-31T03:49:17.940Z,988.13
2019-01-31T03:50:17.920Z,988.08
2019-01-31T03:51:17.901Z,988.04
2019-01-31T03:52:17.890Z,988.13
2019-01-31T03:53:17.887Z,988.07
2019-01-31T03:54:17.866Z,988.15
2019-01-31T03:55:17.919Z,988.17
2019-01-31T03:56:17.853Z,988.19
2019-01-31T03:57:17.833Z,988.16
2019-01-31T03:58:17.825Z,988.19
2019-01-31T03:59:17.812Z,988.13
2019-01-31T04:00:17.851Z,988.17
2019-01-31T04:01:17.804Z,988.10
2019-01-31T04:02:17.785Z,988.16
2019-01-31T04:03:17.768Z,988.09
2019-01-31T04:04:17.772Z,988.08
2019-01-31T04:05:17.764Z,988.10
2019-01-31T04:06:17.753Z,988.19
2019-01-31T04:07:17.744Z,988.15
2019-01-31T04:08:17.717Z,988.19
2019-01-31T04:09:17.703Z,988.22
2019-01-31T04:10:19.013Z,988.22
2019-01-31T04:11:17.682Z,988.25
2019-01-31T04:12:17.679Z,988.25
2019-01-31T04:13:17.673Z,988.26
2019-01-31T04:14:17.646Z,988.30
2019-01-31T04:15:17.645Z,988.30
2019-01-31T04:16:17.633Z,988.28
2019-01-31T04:17:17.617Z,988.28
2019-01-31T04:18:17.628Z,988.27
2019-01-31T04:19:17.646Z,988.28
2019-01-31T04:20:17.624Z,988.26
2019-01-31T04:21:17.572Z,988.26
2019-01-31T04:22:17.566Z,988.29
2019-01-31T04:23:17.579Z,988.25
2019-01-31T04:24:17.543Z,988.29
2019-01-31T04:25:17.526Z,988.29
2019-01-31T04:26:17.530Z,988.26
2019-01-31T04:27:17.503Z,988.29
2019-01-31T04:28:17.493Z,988.29
2019-01-31T04:29:17.483Z,988.29
2019-01-31T04:30:17.507Z,988.32
2019-01-31T04:31:17.489Z,988.36
2019-01-31T04:32:17.461Z,988.37
2019-01-31T04:33:17.439Z,988.37
2019-01-31T04:34:17.439Z,988.39
2019-01-31T04:35:17.424Z,988.37
2019-01-31T04:36:17.427Z,988.36
2019-01-31T04:37:17.397Z,988.41
2019-01-31T04:38:19.727Z,988.35
2019-01-31T04:39:17.395Z,988.39
2019-01-31T04:40:17.369Z,988.36
2019-01-31T04:41:17.381Z,988.44
2019-01-31T04:42:17.338Z,988.38
2019-01-31T04:43:17.342Z,988.43
2019-01-31T04:44:17.317Z,988.44
2019-01-31T04:45:17.307Z,988.40
2019-01-31T04:46:17.313Z,988.38
2019-01-31T04:47:17.299Z,988.42
2019-01-31T04:48:17.280Z,988.39
2019-01-31T04:49:17.324Z,988.40
2019-01-31T04:50:17.252Z,988.36
2019-01-31T04:51:17.276Z,988.42
2019-01-31T04:52:17.234Z,988.40
2019-01-31T04:53:17.227Z,988.37
2019-01-31T04:54:17.271Z,988.38
2019-01-31T04:55:17.195Z,988.36
2019-01-31T04:56:17.198Z,988.35
2019-01-31T04:57:17.201Z,988.33
2019-01-31T04:58:17.168Z,988.35
2019-01-31T04:59:17.152Z,988.34
2019-01-31T05:00:17.151Z,988.34
2019-01-31T05:01:17.148Z,988.30
2019-01-31T05:02:17.153Z,988.31
2019-01-31T05:03:17.111Z,988.30
2019-01-31T05:04:17.121Z,988.29
2019-01-31T05:05:17.086Z,988.29
2019-01-31T05:06:17.124Z,988.30
2019-01-31T05:07:17.066Z,988.31
2019-01-31T05:08:17.053Z,988.27
2019-01-31T05:09:17.048Z,988.29
2019-01-31T05:10:17.032Z,988.30
2019-01-31T05:11:17.031Z,988.28
2019-01-31T05:12:17.008Z,988.30
2019-01-31T05:13:17.015Z,988.28
2019-01-31T05:14:17.020Z,988.33
2019-01-31T05:15:17.076Z,988.37
2019-01-31T05:16:16.976Z,988.39
2019-01-31T05:17:16.953Z,988.40
2019-01-31T05:18:16.947Z,988.39
2019-01-31T05:19:16.942Z,988.41
2019-01-31T05:20:16.929Z,988.42
2019-01-31T05:21:16.963Z,988.40
2019-01-31T05:22:16.899Z,988.48
2019-01-31T05:23:16.892Z,988.45
2019-01-31T05:24:16.879Z,988.49
2019-01-31T05:25:16.871Z,988.45
2019-01-31T05:26:23.878Z,988.45
2019-01-31T05:27:24.367Z,988.45
2019-01-31T05:28:16.837Z,988.44
2019-01-31T05:29:16.821Z,988.46
2019-01-31T05:30:16.838Z,988.47
2019-01-31T05:31:16.799Z,988.48
2019-01-31T05:32:16.803Z,988.49
2019-01-31T05:33:16.780Z,988.48
2019-01-31T05:34:16.768Z,988.50
2019-01-31T05:35:16.757Z,988.51
2019-01-31T05:36:16.748Z,988.52
2019-01-31T05:37:16.768Z,988.53
2019-01-31T05:38:17.539Z,988.50
2019-01-31T05:39:16.717Z,988.51
2019-01-31T05:40:16.726Z,988.52
2019-01-31T05:41:16.692Z,988.52
2019-01-31T05:42:16.695Z,988.52
2019-01-31T05:43:16.677Z,988.51
2019-01-31T05:44:16.661Z,988.49
2019-01-31T05:45:16.645Z,988.47
2019-01-31T05:46:18.415Z,988.47
2019-01-31T05:47:16.637Z,988.48
2019-01-31T05:48:16.620Z,988.51
2019-01-31T05:49:16.608Z,988.49
2019-01-31T05:50:16.633Z,988.51
2019-01-31T05:51:16.728Z,988.51
2019-01-31T05:52:16.583Z,988.55
2019-01-31T05:53:16.571Z,988.48
2019-01-31T05:54:16.556Z,988.52
2019-01-31T05:55:16.542Z,988.55
2019-01-31T05:56:16.524Z,988.54
2019-01-31T05:57:16.527Z,988.58
2019-01-31T05:58:16.527Z,988.58
2019-01-31T05:59:16.494Z,988.59
2019-01-31T06:00:16.486Z,988.57
2019-01-31T06:01:16.488Z,988.60
2019-01-31T06:02:16.510Z,988.63
2019-01-31T06:03:16.454Z,988.71
2019-01-31T06:04:16.445Z,988.70
2019-01-31T06:05:16.427Z,988.72
2019-01-31T06:06:16.417Z,988.73
2019-01-31T06:07:16.419Z,988.70
2019-01-31T06:08:16.394Z,988.73
2019-01-31T06:09:16.388Z,988.70
2019-01-31T06:10:16.372Z,988.72
2019-01-31T06:11:16.370Z,988.77
2019-01-31T06:12:16.361Z,988.79
2019-01-31T06:13:16.354Z,988.75
2019-01-31T06:14:16.403Z,988.74
2019-01-31T06:15:16.320Z,988.71
2019-01-31T06:16:16.309Z,988.74
2019-01-31T06:17:16.511Z,988.81
2019-01-31T06:18:16.288Z,988.77
2019-01-31T06:19:16.542Z,988.78
2019-01-31T06:20:16.275Z,988.79
2019-01-31T06:21:16.249Z,988.76
2019-01-31T06:22:16.265Z,988.78
2019-01-31T06:23:16.248Z,988.77
2019-01-31T06:24:16.228Z,988.78
2019-01-31T06:25:16.215Z,988.78
2019-01-31T06:26:16.207Z,988.79
2019-01-31T06:27:16.182Z,988.79
2019-01-31T06:28:16.190Z,988.79
2019-01-31T06:29:16.164Z,988.78
2019-01-31T06:30:16.164Z,988.82
2019-01-31T06:31:16.144Z,988.83
2019-01-31T06:32:16.134Z,988.81
2019-01-31T06:33:16.129Z,988.79
2019-01-31T06:34:16.110Z,988.78
2019-01-31T06:35:16.253Z,988.81
2019-01-31T06:36:16.101Z,988.82
2019-01-31T06:37:16.075Z,988.83
2019-01-31T06:38:16.073Z,988.82
2019-01-31T06:39:16.055Z,988.74
2019-01-31T06:40:16.044Z,988.79
2019-01-31T06:41:18.777Z,988.77
2019-01-31T06:42:16.019Z,988.82
2019-01-31T06:43:16.020Z,988.81
2019-01-31T06:44:16.004Z,988.80
2019-01-31T06:45:15.987Z,988.85
2019-01-31T06:46:15.998Z,988.83
2019-01-31T06:47:15.967Z,988.82
2019-01-31T06:48:15.965Z,988.84
2019-01-31T06:49:15.943Z,988.81
2019-01-31T06:50:15.933Z,988.85
2019-01-31T06:51:15.930Z,988.84
2019-01-31T06:52:15.915Z,988.86
2019-01-31T06:53:15.915Z,988.89
2019-01-31T06:54:15.890Z,988.92
2019-01-31T06:55:15.880Z,988.94
2019-01-31T06:56:15.867Z,988.92
2019-01-31T06:57:15.862Z,988.95
2019-01-31T06:58:15.856Z,988.94
2019-01-31T06:59:15.840Z,988.93
2019-01-31T07:00:15.820Z,988.94
2019-01-31T07:01:15.938Z,988.93
2019-01-31T07:02:15.801Z,988.95
2019-01-31T07:03:15.801Z,988.93
2019-01-31T07:04:15.780Z,988.92
2019-01-31T07:05:15.767Z,988.88
2019-01-31T07:06:15.754Z,988.92
2019-01-31T07:07:15.775Z,988.89
2019-01-31T07:08:15.746Z,988.98
2019-01-31T07:09:15.764Z,988.96
2019-01-31T07:10:15.712Z,988.98
2019-01-31T07:11:15.699Z,989.01
2019-01-31T07:12:15.688Z,989.00
2019-01-31T07:13:15.693Z,988.99
2019-01-31T07:14:15.671Z,989.00
2019-01-31T07:15:15.660Z,988.94
2019-01-31T07:16:15.643Z,988.99
2019-01-31T07:17:18.298Z,988.97
2019-01-31T07:18:15.644Z,988.95
2019-01-31T07:19:15.620Z,988.97
2019-01-31T07:20:15.634Z,988.95
2019-01-31T07:21:15.590Z,988.97
2019-01-31T07:22:15.582Z,988.97
2019-01-31T07:23:15.622Z,989.03
2019-01-31T07:24:15.563Z,989.04
2019-01-31T07:25:15.546Z,989.04
2019-01-31T07:26:15.541Z,989.05
2019-01-31T07:27:15.523Z,989.08
2019-01-31T07:28:15.515Z,989.08
2019-01-31T07:29:15.515Z,989.07
2019-01-31T07:30:15.492Z,989.07
2019-01-31T07:31:15.484Z,989.06
2019-01-31T07:32:15.485Z,989.03
2019-01-31T07:33:15.458Z,989.07
2019-01-31T07:34:15.462Z,989.09
2019-01-31T07:35:15.441Z,989.05
2019-01-31T07:36:15.444Z,989.09
2019-01-31T07:37:15.414Z,989.08
2019-01-31T07:38:15.403Z,989.07
2019-01-31T07:39:15.407Z,989.06
2019-01-31T07:40:15.383Z,989.07
2019-01-31T07:41:15.370Z,989.07
2019-01-31T07:42:15.404Z,989.09
2019-01-31T07:43:15.351Z,989.04
2019-01-31T07:44:15.356Z,989.06
2019-01-31T07:45:15.332Z,989.00
2019-01-31T07:46:15.331Z,989.04
2019-01-31T07:47:15.311Z,989.06
2019-01-31T07:48:15.299Z,989.11
2019-01-31T07:49:15.294Z,989.11
2019-01-31T07:50:15.275Z,989.13
2019-01-31T07:51:15.261Z,989.09
2019-01-31T07:52:15.249Z,989.15
2019-01-31T07:53:15.241Z,989.12
2019-01-31T07:54:15.244Z,989.13
2019-01-31T07:55:15.233Z,989.13
2019-01-31T07:56:15.204Z,989.16
2019-01-31T07:57:15.194Z,989.16
2019-01-31T07:58:15.185Z,989.16
2019-01-31T07:59:15.184Z,989.14
2019-01-31T08:00:15.165Z,989.18
2019-01-31T08:01:15.170Z,989.21
2019-01-31T08:02:15.140Z,989.26
2019-01-31T08:03:15.128Z,989.27
2019-01-31T08:04:15.132Z,989.27
2019-01-31T08:05:15.108Z,989.28
2019-01-31T08:06:15.097Z,989.24
2019-01-31T08:07:15.087Z,989.27
2019-01-31T08:08:15.076Z,989.28
2019-01-31T08:09:15.073Z,989.27
2019-01-31T08:10:15.051Z,989.28
2019-01-31T08:11:15.041Z,989.38
2019-01-31T08:12:15.030Z,989.32
2019-01-31T08:13:15.031Z,989.38
2019-01-31T08:14:15.027Z,989.38
2019-01-31T08:15:14.997Z,989.43
2019-01-31T08:16:14.995Z,989.49
2019-01-31T08:17:14.975Z,989.48
2019-01-31T08:18:14.979Z,989.52
2019-01-31T08:19:14.968Z,989.51
2019-01-31T08:20:14.947Z,989.52
2019-01-31T08:21:14.930Z,989.51
2019-01-31T08:22:14.919Z,989.54
2019-01-31T08:23:14.908Z,989.59
2019-01-31T08:24:14.918Z,989.59
2019-01-31T08:25:14.901Z,989.56
2019-01-31T08:26:14.876Z,989.59
2019-01-31T08:27:14.865Z,989.62
2019-01-31T08:28:14.854Z,989.62
2019-01-31T08:29:14.878Z,989.64
2019-01-31T08:30:14.847Z,989.62
2019-01-31T08:31:14.840Z,989.63
2019-01-31T08:32:14.811Z,989.65
2019-01-31T08:33:14.801Z,989.64
2019-01-31T08:34:14.789Z,989.65
2019-01-31T08:35:14.789Z,989.62
2019-01-31T08:36:14.768Z,989.62
2019-01-31T08:37:14.756Z,989.60
2019-01-31T08:38:14.746Z,989.62
2019-01-31T08:39:14.744Z,989.60
2019-01-31T08:40:14.735Z,989.64
2019-01-31T08:41:14.740Z,989.61
2019-01-31T08:42:14.699Z,989.58
2019-01-31T08:43:14.694Z,989.55
2019-01-31T08:44:14.678Z,989.59
2019-01-31T08:45:14.689Z,989.59
2019-01-31T08:46:14.661Z,989.59
2019-01-31T08:47:14.647Z,989.61
2019-01-31T08:48:14.649Z,989.64
2019-01-31T08:49:14.633Z,989.60
2019-01-31T08:50:14.629Z,989.65
2019-01-31T08:51:14.645Z,989.64
2019-01-31T08:52:14.590Z,989.70
2019-01-31T08:53:14.582Z,989.70
2019-01-31T08:54:14.570Z,989.71
2019-01-31T08:55:14.577Z,989.77
2019-01-31T08:56:14.563Z,989.77
2019-01-31T08:57:14.539Z,989.76
2019-01-31T08:58:14.524Z,989.76
2019-01-31T08:59:14.515Z,989.71
2019-01-31T09:00:14.514Z,989.74
2019-01-31T09:01:14.495Z,989.69
2019-01-31T09:02:14.482Z,989.69
2019-01-31T09:03:14.590Z,989.71
2019-01-31T09:04:14.480Z,989.71
2019-01-31T09:05:14.459Z,989.74
2019-01-31T09:06:15.077Z,989.75
2019-01-31T09:07:14.448Z,989.75
2019-01-31T09:08:14.415Z,989.77
2019-01-31T09:09:14.403Z,989.78
2019-01-31T09:10:14.407Z,989.79
2019-01-31T09:11:14.383Z,989.78
2019-01-31T09:12:15.580Z,989.80
2019-01-31T09:13:14.361Z,989.77
2019-01-31T09:14:14.375Z,989.78
2019-01-31T09:15:14.351Z,989.77
2019-01-31T09:16:14.327Z,989.73
2019-01-31T09:17:14.316Z,989.79
2019-01-31T09:18:14.307Z,989.73
2019-01-31T09:19:14.295Z,989.71
2019-01-31T09:20:14.303Z,989.77
2019-01-31T09:21:14.271Z,989.73
2019-01-31T09:22:14.263Z,989.73
2019-01-31T09:23:14.252Z,989.74
2019-01-31T09:24:14.242Z,989.78
2019-01-31T09:25:14.264Z,989.79
2019-01-31T09:26:14.225Z,989.82
2019-01-31T09:27:14.207Z,989.86
2019-01-31T09:28:14.200Z,989.88
2019-01-31T09:29:14.184Z,989.87
2019-01-31T09:30:14.193Z,989.90
2019-01-31T09:31:14.176Z,989.91
2019-01-31T09:32:14.151Z,989.93
2019-01-31T09:33:14.141Z,989.91
2019-01-31T09:34:14.130Z,989.97
2019-01-31T09:35:14.131Z,989.93
2019-01-31T09:36:14.106Z,989.98
2019-01-31T09:37:14.118Z,990.03
2019-01-31T09:38:14.085Z,990.03
2019-01-31T09:39:14.074Z,990.04
2019-01-31T09:40:14.076Z,990.04
2019-01-31T09:41:14.061Z,990.06
2019-01-31T09:42:14.040Z,990.08
2019-01-31T09:43:14.038Z,990.11
2019-01-31T09:44:14.022Z,990.08
2019-01-31T09:45:14.027Z,990.12
2019-01-31T09:46:13.996Z,990.12
2019-01-31T09:47:13.992Z,990.08
2019-01-31T09:48:13.976Z,990.10
2019-01-31T09:49:13.965Z,990.11
2019-01-31T09:50:14.020Z,990.10
2019-01-31T09:51:13.943Z,990.13
2019-01-31T09:52:13.932Z,990.12
2019-01-31T09:53:13.929Z,990.16
2019-01-31T09:54:13.914Z,990.15
2019-01-31T09:55:13.899Z,990.18
2019-01-31T09:56:13.904Z,990.19
2019-01-31T09:57:13.887Z,990.16
2019-01-31T09:58:13.864Z,990.21
2019-01-31T09:59:13.857Z,990.17
2019-01-31T10:00:13.869Z,990.16
2019-01-31T10:01:13.849Z,990.22
2019-01-31T10:02:13.823Z,990.20
2019-01-31T10:03:13.812Z,990.22
2019-01-31T10:04:13.812Z,990.22
2019-01-31T10:05:13.795Z,990.23
2019-01-31T10:06:13.793Z,990.22
2019-01-31T10:07:13.770Z,990.19
2019-01-31T10:08:13.758Z,990.22
2019-01-31T10:09:15.991Z,990.21
2019-01-31T10:10:13.737Z,990.19
2019-01-31T10:11:13.773Z,990.20
2019-01-31T10:12:13.815Z,990.21
2019-01-31T10:13:13.704Z,990.20
2019-01-31T10:14:13.740Z,990.23
2019-01-31T10:15:13.681Z,990.17
2019-01-31T10:16:13.711Z,990.17
2019-01-31T10:17:13.688Z,990.16
2019-01-31T10:18:13.694Z,990.16
2019-01-31T10:19:13.684Z,990.16
2019-01-31T10:20:13.644Z,990.15
2019-01-31T10:21:13.623Z,990.15
2019-01-31T10:22:13.620Z,990.14
2019-01-31T10:23:13.612Z,990.11
2019-01-31T10:24:13.585Z,990.11
2019-01-31T10:25:13.599Z,990.10
2019-01-31T10:26:13.578Z,990.11
2019-01-31T10:27:13.551Z,990.07
2019-01-31T10:28:13.537Z,990.05
2019-01-31T10:29:13.527Z,990.04
2019-01-31T10:30:14.994Z,990.03
2019-01-31T10:31:13.564Z,990.03
2019-01-31T10:32:13.497Z,989.96
2019-01-31T10:33:13.484Z,989.97
2019-01-31T10:34:13.474Z,989.92
2019-01-31T10:35:13.459Z,989.91
2019-01-31T10:36:13.453Z,989.95
2019-01-31T10:37:13.448Z,989.89
2019-01-31T10:38:13.456Z,989.92
2019-01-31T10:39:13.533Z,989.93
2019-01-31T10:40:13.407Z,989.89
2019-01-31T10:41:13.395Z,989.89
2019-01-31T10:42:13.393Z,989.89
2019-01-31T10:43:13.373Z,989.90
2019-01-31T10:44:13.366Z,989.89
2019-01-31T10:45:13.354Z,989.86
2019-01-31T10:46:13.361Z,989.87
2019-01-31T10:47:13.341Z,989.85
2019-01-31T10:48:13.387Z,989.86
2019-01-31T10:49:13.307Z,989.86
2019-01-31T10:50:13.296Z,989.80
2019-01-31T10:51:13.285Z,989.84
2019-01-31T10:52:13.286Z,989.85
2019-01-31T10:53:13.266Z,989.84
2019-01-31T10:54:13.261Z,989.82
2019-01-31T10:55:13.250Z,989.86
2019-01-31T10:56:13.231Z,989.83
2019-01-31T10:57:13.231Z,989.75
2019-01-31T10:58:13.206Z,989.72
2019-01-31T10:59:13.198Z,989.70
2019-01-31T11:00:13.189Z,989.70
2019-01-31T11:01:13.177Z,989.65
2019-01-31T11:02:13.175Z,989.63
2019-01-31T11:03:13.161Z,989.62
2019-01-31T11:04:13.140Z,989.63
2019-01-31T11:05:13.134Z,989.64
2019-01-31T11:06:13.122Z,989.61
2019-01-31T11:07:13.124Z,989.58
2019-01-31T11:08:13.097Z,989.57
2019-01-31T11:09:13.103Z,989.55
2019-01-31T11:10:13.074Z,989.49
2019-01-31T11:11:13.063Z,989.48
2019-01-31T11:12:13.065Z,989.37
2019-01-31T11:13:13.045Z,989.39
2019-01-31T11:14:13.033Z,989.36
2019-01-31T11:15:13.022Z,989.33
2019-01-31T11:16:13.009Z,989.34
2019-01-31T11:17:13.010Z,989.28
2019-01-31T11:18:13.001Z,989.30
2019-01-31T11:19:12.996Z,989.33
2019-01-31T11:20:12.967Z,989.28
2019-01-31T11:21:12.954Z,989.25
2019-01-31T11:22:12.945Z,989.28
2019-01-31T11:23:12.944Z,989.25
2019-01-31T11:24:12.922Z,989.24
2019-01-31T11:25:12.911Z,989.22
2019-01-31T11:26:12.903Z,989.26
2019-01-31T11:27:12.893Z,989.23
2019-01-31T11:28:12.894Z,989.19
2019-01-31T11:29:12.870Z,989.17
2019-01-31T11:30:12.859Z,989.20
2019-01-31T11:31:12.847Z,989.18
2019-01-31T11:32:12.844Z,989.15
2019-01-31T11:33:12.836Z,989.12
2019-01-31T11:34:12.811Z,989.12
2019-01-31T11:35:12.808Z,989.12
2019-01-31T11:36:12.790Z,989.09
2019-01-31T11:37:12.779Z,989.10
2019-01-31T11:38:12.795Z,989.11
2019-01-31T11:39:12.758Z,989.11
2019-01-31T11:40:12.773Z,989.12
2019-01-31T11:41:12.735Z,989.10
2019-01-31T11:42:12.730Z,989.12
2019-01-31T11:43:12.775Z,989.12
2019-01-31T11:44:12.709Z,989.14
2019-01-31T11:45:12.691Z,989.11
2019-01-31T11:46:12.678Z,989.07
2019-01-31T11:47:12.670Z,989.00
2019-01-31T11:48:12.657Z,989.04
2019-01-31T11:49:12.683Z,989.04
2019-01-31T11:50:12.648Z,989.02
2019-01-31T11:51:12.643Z,988.99
2019-01-31T11:52:12.613Z,988.98
2019-01-31T11:53:12.605Z,988.93
2019-01-31T11:54:12.605Z,988.90
2019-01-31T11:55:12.580Z,988.95
2019-01-31T11:56:12.569Z,988.93
2019-01-31T11:57:12.592Z,988.89
2019-01-31T11:58:12.560Z,988.87
2019-01-31T11:59:12.549Z,988.87
2019-01-31T12:00:12.566Z,988.87
2019-01-31T12:01:12.516Z,988.89
2019-01-31T12:02:12.507Z,988.90
2019-01-31T12:03:12.493Z,988.89
2019-01-31T12:04:12.498Z,988.87
2019-01-31T12:05:12.487Z,988.89
2019-01-31T12:06:12.461Z,988.86
2019-01-31T12:07:12.451Z,988.86
2019-01-31T12:08:12.543Z,988.88
2019-01-31T12:09:12.437Z,988.89
2019-01-31T12:10:12.416Z,988.87
2019-01-31T12:11:12.405Z,988.85
2019-01-31T12:12:12.415Z,988.80
2019-01-31T12:13:22.788Z,988.82
2019-01-31T12:14:13.384Z,988.81
2019-01-31T12:15:12.362Z,988.80
2019-01-31T12:16:12.350Z,988.76
2019-01-31T12:17:12.342Z,988.74
2019-01-31T12:18:12.331Z,988.77
2019-01-31T12:19:12.333Z,988.73
2019-01-31T12:20:12.310Z,988.72
2019-01-31T12:21:12.294Z,988.70
2019-01-31T12:22:12.285Z,988.71
2019-01-31T12:23:12.282Z,988.67
2019-01-31T12:24:16.551Z,988.69
2019-01-31T12:25:12.253Z,988.65
2019-01-31T12:26:14.021Z,988.62
2019-01-31T12:27:12.232Z,988.67
2019-01-31T12:28:12.219Z,988.63